Gabriola, Canada
Current Conditions -  °F | °C
As of 9:00 PM on Sunday 21 Dec 2014 (Local Time) from CYCD Reporting Station
Broken Clouds Broken Clouds  
Wind Chill: 43°   Ceiling: 10000
Heat Index: 43°   Visibility: 20mi
Dew Point: 41°   Wind: 2mph
Humidity: 93%   Direction: NA
Pressure: 30.01"   Gusts: NA
Location:  49.18°N, 123.85°W
Report Text: CYCD 220500Z VRB02KT 20SM FEW040 BKN100 06/05 A3001 RMK SC1AC5 LAST OBS/NE XT 221400 UTC SLP163
Loading
Personal Weather Stations






























Interactive Weather Map New forecast layout! Learn more

10-Day Weather Forecast

Advertisements
Track Severe Weather on mobile